Nearby METAR Reports

 

NZWN - Wellington Intl, New Zealand
Distance from station: E 67km
Updated: 21/05/2018 20:00
Clear
Clear
 Wind from NNW
Wind: NNW 24 km/h
Temperature: 14°C
Dew Point: 4°C
Humidity: 51%
Barometer: 1003 hPa
Clouds: Clear
Visibility: 10 km
2018/05/21 08:00 NZWN 210800Z AUTO 34013KT 310V010 9999 NCD 14/04 Q1003 NOSIG
NZCH - Christchurch Int, New Zealand
Distance from station: SSW 269km
Updated: 21/05/2018 20:00
Clear
Clear
 Wind from ENE
Wind: ENE 9 km/h
Temperature: 7°C
Wind Chill: 6°C
Dew Point: 3°C
Humidity: 76%
Barometer: 1000 hPa
Clouds: Clear
Visibility: 10 km
2018/05/21 08:00 NZCH 210800Z AUTO 07005KT 9999 NCD 07/03 Q1000 NOSIG
 
NZAA - Auckland Intl Ar, New Zealand
Distance from station: N 480km
Updated: 21/05/2018 20:00
Few Clouds
Few Clouds
 Wind from NNW
Wind: NNW 9 km/h
Temperature: 15°C
Dew Point: 12°C
Humidity: 82%
Barometer: 1010 hPa
Clouds: Few Clouds
Visibility: 10 km
Cloud details: Few Clouds 1433 m
2018/05/21 08:00 NZAA 210800Z AUTO 33005KT 290V360 9999 FEW047/// 15/12 Q1010 TEMPO 6000 SHRA